Time;durP1;ratioP1;P1;durP2;ratioP2;P2;SDS_P1;SDS_P2;PMS_P1;PMS_P2;Temp;Humidity;BMP_temperature;BMP_pressure;BME280_temperature;BME280_humidity;BME280_pressure;Samples;Min_cycle;Max_cycle;Signal;HPM_P1;HPM_P2
2022/09/23 00:01:16;;;;;;;;;23.33;21.00;;;;;16.44;48.70;101418.88;4976739;28;45325;-53
2022/09/23 00:03:47;;;;;;;;;23.67;19.00;;;;;16.43;49.03;101421.69;4976720;28;45182;-49
2022/09/23 00:06:16;;;;;;;;;20.33;18.67;;;;;16.43;49.12;101419.88;4976073;28;45477;-48
2022/09/23 00:08:42;;;;;;;;;25.67;22.00;;;;;16.43;49.43;101414.50;4976525;28;45224;-54
2022/09/23 00:11:10;;;;;;;;;24.00;21.00;;;;;16.43;49.54;101421.69;4976350;28;45312;-55
2022/09/23 00:13:36;;;;;;;;;22.00;18.67;;;;;16.42;48.98;101412.81;4976153;28;45422;-52
2022/09/23 00:16:04;;;;;;;;;22.33;19.67;;;;;16.39;48.81;101409.63;4976271;28;47462;-54
2022/09/23 00:18:29;;;;;;;;;19.67;19.00;;;;;16.35;48.75;101411.81;4977842;28;45433;-55
2022/09/23 00:20:55;;;;;;;;;23.33;19.33;;;;;16.33;48.73;101402.25;4976431;28;45287;-53
2022/09/23 00:23:20;;;;;;;;;21.33;18.00;;;;;16.30;49.21;101405.25;4976496;28;45141;-45
2022/09/23 00:25:58;;;;;;;;;24.67;19.00;;;;;16.27;49.06;101398.41;4975931;28;45717;-54
2022/09/23 00:28:24;;;;;;;;;12.00;10.00;;;;;16.24;48.78;101403.25;4976052;28;45541;-52
2022/09/23 00:30:49;;;;;;;;;28.67;21.00;;;;;16.20;49.58;101398.22;4976459;28;45397;-52
2022/09/23 00:33:15;;;;;;;;;13.00;6.00;;;;;16.13;49.60;101389.16;4976397;28;45396;-52
2022/09/23 00:35:40;;;;;;;;;11.67;7.33;;;;;16.14;49.39;101390.84;4976176;28;45354;-52
2022/09/23 00:38:06;;;;;;;;;26.67;21.33;;;;;16.12;50.23;101392.84;4975956;28;45346;-46
2022/09/23 00:40:31;;;;;;;;;19.67;18.00;;;;;16.10;49.30;101392.19;4975906;28;45468;-54
2022/09/23 00:42:57;;;;;;;;;28.67;20.67;;;;;16.06;50.45;101384.66;4976235;28;45451;-53
2022/09/23 00:45:22;;;;;;;;;19.67;18.33;;;;;16.01;50.43;101379.75;4977630;28;45479;-54
2022/09/23 00:47:55;;;;;;;;;18.33;15.33;;;;;15.92;49.59;101373.53;4976713;28;45296;-54
2022/09/23 00:50:35;;;;;;;;;16.00;16.00;;;;;15.90;50.42;101380.09;4976888;28;45375;-50
2022/09/23 00:53:04;;;;;;;;;24.33;18.00;;;;;15.93;50.91;101382.47;4976547;28;45426;-51
2022/09/23 00:55:35;;;;;;;;;20.00;18.67;;;;;15.92;51.24;101386.13;4976347;28;45422;-54
2022/09/23 00:58:06;;;;;;;;;21.00;21.00;;;;;15.93;51.20;101379.78;4975617;28;45259;-51
2022/09/23 01:00:32;;;;;;;;;24.33;17.33;;;;;15.89;50.54;101383.78;4975872;28;45457;-49
2022/09/23 01:02:59;;;;;;;;;16.00;15.67;;;;;15.84;50.17;101380.75;4975764;28;45440;-54
2022/09/23 01:05:25;;;;;;;;;21.33;19.00;;;;;15.78;50.70;101386.78;4975669;28;45332;-51
2022/09/23 01:07:52;;;;;;;;;18.67;17.00;;;;;15.75;50.64;101387.09;4975573;28;45284;-55
2022/09/23 01:10:18;;;;;;;;;23.33;21.67;;;;;15.73;51.79;101381.06;4975845;28;45420;-54
2022/09/23 01:12:50;;;;;;;;;18.00;16.33;;;;;15.72;51.21;101377.56;4975863;28;45522;-49
2022/09/23 01:15:44;;;;;;;;;18.67;17.67;;;;;15.73;51.26;101379.22;4975451;28;45985;-53
2022/09/23 01:18:42;;;;;;;;;18.33;17.00;;;;;15.75;51.32;101384.41;4975387;28;45178;-51
2022/09/23 01:21:46;;;;;;;;;18.00;15.33;;;;;15.74;50.78;101377.38;4978010;28;45339;-54
2022/09/23 01:24:33;;;;;;;;;21.33;17.67;;;;;15.71;51.27;101376.69;4975660;28;45382;-54
2022/09/23 01:27:08;;;;;;;;;19.00;17.67;;;;;15.70;51.95;101369.66;4975180;28;45730;-52
2022/09/23 01:29:49;;;;;;;;;21.33;20.33;;;;;15.67;50.72;101361.97;4974902;28;45473;-54
2022/09/23 01:32:42;;;;;;;;;18.67;17.67;;;;;15.65;50.94;101349.72;4975386;28;45360;-55
2022/09/23 01:35:23;;;;;;;;;18.67;18.33;;;;;15.62;51.50;101356.19;4975588;28;45260;-55
2022/09/23 01:38:05;;;;;;;;;19.00;17.00;;;;;15.58;51.61;101360.22;4976443;28;45433;-53
2022/09/23 01:40:49;;;;;;;;;19.33;17.67;;;;;15.55;51.68;101355.19;4974954;28;45397;-51
2022/09/23 01:43:27;;;;;;;;;12.00;12.00;;;;;15.50;51.96;101349.47;4976806;28;45296;-53
2022/09/23 01:45:58;;;;;;;;;24.00;17.00;;;;;15.47;51.55;101347.97;4975446;28;45205;-53
2022/09/23 01:48:42;;;;;;;;;18.00;16.00;;;;;15.43;52.98;101343.09;4974342;28;46492;-52
2022/09/23 01:51:15;;;;;;;;;22.33;20.33;;;;;15.37;53.36;101343.75;4974999;28;45325;-50
2022/09/23 01:53:50;;;;;;;;;21.00;19.00;;;;;15.35;52.83;101353.81;4975071;28;45454;-53
2022/09/23 01:56:28;;;;;;;;;22.33;20.33;;;;;15.33;53.08;101350.44;4975208;28;45280;-49
2022/09/23 01:59:08;;;;;;;;;26.00;19.00;;;;;15.33;53.06;101355.78;4974751;28;46278;-49
2022/09/23 02:01:38;;;;;;;;;20.67;18.67;;;;;15.33;53.05;101355.78;4974755;28;45342;-53
2022/09/23 02:04:11;;;;;;;;;20.67;17.67;;;;;15.34;53.19;101358.31;4976592;28;45319;-53
2022/09/23 02:06:44;;;;;;;;;19.00;16.33;;;;;15.31;52.96;101349.75;4975238;28;45292;-55
2022/09/23 02:09:20;;;;;;;;;23.00;20.33;;;;;15.34;52.87;101352.97;4974764;28;46158;-55
2022/09/23 02:11:51;;;;;;;;;23.67;20.00;;;;;15.35;53.67;101353.81;4974916;28;45420;-50
2022/09/23 02:14:26;;;;;;;;;18.00;17.00;;;;;15.35;52.49;101351.13;4974726;28;45421;-55
2022/09/23 02:16:55;;;;;;;;;19.33;17.67;;;;;15.35;53.47;101349.28;4975194;28;45286;-46
2022/09/23 02:19:40;;;;;;;;;24.00;18.00;;;;;15.34;53.43;101349.44;4974802;28;46015;-53
2022/09/23 02:22:28;;;;;;;;;23.67;17.00;;;;;15.33;52.32;101348.59;4974674;28;45263;-58
2022/09/23 02:24:56;;;;;;;;;21.00;18.00;;;;;15.26;53.32;101336.84;4975152;27;45283;-56
2022/09/23 02:27:43;;;;;;;;;17.33;17.00;;;;;15.31;53.78;101347.91;4974934;28;45616;-53
2022/09/23 02:30:20;;;;;;;;;18.67;17.67;;;;;15.33;53.62;101342.38;4974301;28;46381;-55
2022/09/23 02:33:01;;;;;;;;;23.67;16.67;;;;;15.36;53.19;101350.09;4974539;28;45374;-54
2022/09/23 02:35:32;;;;;;;;;17.67;15.00;;;;;15.33;52.79;101342.38;4974637;28;45227;-52
2022/09/23 02:38:13;;;;;;;;;24.00;20.00;;;;;15.34;53.74;101338.72;4975000;28;45365;-53
2022/09/23 02:40:50;;;;;;;;;20.33;18.33;;;;;15.35;53.50;101337.72;4974196;28;46168;-52
2022/09/23 02:43:22;;;;;;;;;19.00;17.33;;;;;15.35;52.96;101337.72;4974498;28;45421;-50
2022/09/23 02:45:49;;;;;;;;;18.33;17.67;;;;;15.35;54.05;101337.72;4974331;28;45256;-54
2022/09/23 02:48:22;;;;;;;;;23.33;18.00;;;;;15.30;53.97;101332.00;4974770;28;45442;-55
2022/09/23 02:50:48;;;;;;;;;24.00;17.67;;;;;15.35;54.16;101335.03;4974227;28;45367;-53
2022/09/23 02:53:17;;;;;;;;;18.67;17.00;;;;;15.36;53.87;101332.19;4974271;28;45357;-52
2022/09/23 02:55:42;;;;;;;;;24.33;19.33;;;;;15.32;53.78;101327.31;4974560;28;45398;-55
2022/09/23 02:58:11;;;;;;;;;21.67;18.00;;;;;15.30;53.93;101335.53;4974650;28;45510;-54
2022/09/23 03:01:04;;;;;;;;;21.33;17.67;;;;;15.26;53.94;101325.28;4974118;28;46375;-51
2022/09/23 03:03:48;;;;;;;;;22.33;18.00;;;;;15.20;54.25;101327.59;4977611;28;45318;-52
2022/09/23 03:06:30;;;;;;;;;23.33;19.67;;;;;15.13;53.56;101315.03;4977816;28;45428;-54
2022/09/23 03:09:11;;;;;;;;;27.33;16.67;;;;;15.15;53.52;101319.22;4977390;28;45449;-52
2022/09/23 03:11:41;;;;;;;;;19.67;17.00;;;;;15.13;54.66;101323.06;4977193;28;46350;-54
2022/09/23 03:14:32;;;;;;;;;20.67;16.67;;;;;15.14;54.27;101320.22;4976848;28;45573;-53
2022/09/23 03:17:02;;;;;;;;;21.33;16.33;;;;;15.17;54.33;101319.06;4977103;28;45388;-53
2022/09/23 03:19:49;;;;;;;;;20.33;17.33;;;;;15.15;53.63;101321.91;4977136;28;45345;-48
2022/09/23 03:22:34;;;;;;;;;18.00;15.67;;;;;15.15;53.46;101323.75;4976786;28;46334;-44
2022/09/23 03:25:06;;;;;;;;;20.33;15.33;;;;;15.09;54.20;101314.53;4976906;28;45296;-45
2022/09/23 03:27:35;;;;;;;;;19.33;16.67;;;;;15.04;54.56;101307.94;4977191;28;45416;-45
2022/09/23 03:30:01;;;;;;;;;19.67;18.00;;;;;15.05;54.28;101321.19;4976874;28;45325;-45
2022/09/23 03:32:28;;;;;;;;;18.33;16.33;;;;;15.03;54.01;101312.47;4976599;28;46257;-45
2022/09/23 03:34:57;;;;;;;;;19.00;17.67;;;;;15.02;54.17;101324.19;4975589;28;45346;-44
2022/09/23 03:37:39;;;;;;;;;20.67;16.67;;;;;14.96;54.37;101316.81;4976890;28;45411;-46
2022/09/23 03:40:49;;;;;;;;;20.00;18.00;;;;;14.86;54.17;101308.06;4976776;28;45470;-46
2022/09/23 03:43:15;;;;;;;;;18.67;18.67;;;;;14.88;55.15;101314.09;5037036;28;46280;-46
2022/09/23 03:45:41;;;;;;;;;23.00;20.33;;;;;14.90;54.73;101320.13;5036895;28;45407;-45
2022/09/23 03:48:06;;;;;;;;;18.67;14.67;;;;;14.87;54.34;101326.63;5037041;28;45354;-45
2022/09/23 03:50:34;;;;;;;;;27.33;17.67;;;;;14.84;54.97;101331.50;5037574;28;45460;-45
2022/09/23 03:53:00;;;;;;;;;20.33;19.00;;;;;14.85;55.35;101330.50;5036826;28;47245;-45
2022/09/23 03:55:26;;;;;;;;;18.00;17.00;;;;;14.82;55.36;101325.44;5036993;28;45461;-45
2022/09/23 03:57:51;;;;;;;;;17.67;17.67;;;;;14.85;54.90;101338.53;5037065;28;45388;-45
2022/09/23 04:00:17;;;;;;;;;18.00;14.33;;;;;14.77;54.68;101319.72;5037107;28;45346;-45
2022/09/23 04:02:43;;;;;;;;;22.33;16.00;;;;;14.74;54.33;101318.19;5036757;28;46987;-48
2022/09/23 04:05:10;;;;;;;;;20.33;17.67;;;;;14.81;55.22;101335.31;5036897;28;45468;-44
2022/09/23 04:07:35;;;;;;;;;19.00;15.33;;;;;14.79;55.60;101326.63;5037114;28;45428;-48
2022/09/23 04:10:00;;;;;;;;;19.33;14.33;;;;;14.80;55.45;101333.66;5036868;28;45346;-46
2022/09/23 04:12:26;;;;;;;;;19.33;14.33;;;;;14.76;55.53;101331.44;5036198;28;45928;-45
2022/09/23 04:14:51;;;;;;;;;19.33;16.00;;;;;14.77;55.75;101341.16;5036560;28;45441;-45
2022/09/23 04:17:17;;;;;;;;;19.33;18.33;;;;;14.75;56.00;101333.28;5036857;28;45606;-47
2022/09/23 04:19:43;;;;;;;;;22.33;16.67;;;;;14.72;55.22;101342.47;5011161;28;45510;-45
2022/09/23 04:22:09;;;;;;;;;20.33;17.33;;;;;14.63;54.99;101327.38;4976303;28;47239;-48
2022/09/23 04:24:35;;;;;;;;;26.33;20.67;;;;;14.63;55.47;101326.53;4976238;28;45338;-43
2022/09/23 04:27:00;;;;;;;;;25.00;18.33;;;;;14.61;55.55;101328.50;4976425;28;45296;-48
2022/09/23 04:29:26;;;;;;;;;24.33;20.33;;;;;14.59;55.63;101327.84;4976394;28;45328;-46
2022/09/23 04:31:52;;;;;;;;;16.33;16.33;;;;;14.56;56.58;101326.31;4976143;28;47101;-45
2022/09/23 04:34:18;;;;;;;;;24.67;17.33;;;;;14.57;55.93;101333.34;4975991;28;45446;-47
2022/09/23 04:36:45;;;;;;;;;17.33;17.33;;;;;14.56;56.65;101334.34;4976190;28;45366;-46
2022/09/23 04:39:11;;;;;;;;;18.67;16.67;;;;;14.55;56.61;101331.84;4975151;28;45429;-48
2022/09/23 04:41:37;;;;;;;;;19.33;18.33;;;;;14.54;55.41;101325.66;4975448;28;45437;-46
2022/09/23 04:44:03;;;;;;;;;23.67;16.33;;;;;14.50;56.18;101321.59;4976071;28;45355;-44
2022/09/23 04:46:28;;;;;;;;;17.00;17.00;;;;;14.44;56.96;101309.63;4976024;28;45301;-46
2022/09/23 04:48:54;;;;;;;;;20.00;16.00;;;;;14.51;56.87;101320.59;4976155;28;45199;-49
2022/09/23 04:51:21;;;;;;;;;18.67;17.33;;;;;14.50;56.76;101315.41;4975764;28;46868;-45
2022/09/23 04:53:49;;;;;;;;;19.33;17.00;;;;;14.49;57.12;101319.91;4975873;28;45524;-54
2022/09/23 04:56:15;;;;;;;;;22.00;19.00;;;;;14.50;56.83;101320.78;4976203;28;45375;-44
2022/09/23 04:58:42;;;;;;;;;17.67;13.67;;;;;14.50;57.02;101318.09;4976112;28;45364;-47
2022/09/23 05:01:25;;;;;;;;;19.33;17.00;;;;;14.50;56.81;101315.41;4975325;28;46960;-53
2022/09/23 05:04:04;;;;;;;;;16.67;14.33;;;;;14.49;56.33;101314.56;4975669;28;45235;-53
2022/09/23 05:06:30;;;;;;;;;18.00;15.67;;;;;14.51;57.24;101311.72;4975800;28;45290;-50
2022/09/23 05:08:57;;;;;;;;;25.33;17.00;;;;;14.52;56.95;101314.25;4975693;28;45573;-53
2022/09/23 05:11:24;;;;;;;;;21.00;20.33;;;;;14.49;56.71;101298.50;4975192;28;46315;-49
2022/09/23 05:13:51;;;;;;;;;20.00;16.00;;;;;14.50;56.83;101302.88;4975521;28;45273;-51
2022/09/23 05:16:18;;;;;;;;;20.67;16.67;;;;;14.49;57.02;101309.19;4975511;27;45279;-50
2022/09/23 05:18:44;;;;;;;;;20.33;17.00;;;;;14.33;57.19;101298.38;4975818;28;45423;-53
2022/09/23 05:21:12;;;;;;;;;16.67;15.00;;;;;14.40;56.85;101302.91;4975499;28;46197;-53
2022/09/23 05:23:39;;;;;;;;;17.00;16.67;;;;;14.37;56.46;101294.41;4974400;28;45504;-48
2022/09/23 05:26:07;;;;;;;;;13.33;11.33;;;;;14.23;56.74;101283.25;4977288;28;45310;-51
2022/09/23 05:28:33;;;;;;;;;24.00;15.33;;;;;14.25;57.02;101298.34;4975711;28;45390;-51
2022/09/23 05:31:03;;;;;;;;;23.33;19.00;;;;;14.31;56.60;101301.19;4975233;28;45988;-50
2022/09/23 05:33:29;;;;;;;;;20.67;19.00;;;;;14.30;57.37;101296.84;4976793;28;45407;-49
2022/09/23 05:35:54;;;;;;;;;17.33;17.33;;;;;14.31;56.75;101289.66;4975481;28;45403;-54
2022/09/23 05:38:20;;;;;;;;;19.33;14.67;;;;;14.29;56.49;101297.84;4975479;28;45169;-50
2022/09/23 05:40:45;;;;;;;;;20.67;19.33;;;;;14.25;56.90;101296.50;4975210;28;45205;-54
2022/09/23 05:43:10;;;;;;;;;27.67;20.00;;;;;14.25;56.81;101304.53;4975410;28;45381;-54
2022/09/23 05:45:36;;;;;;;;;23.00;19.67;;;;;14.26;56.78;101308.03;4975251;28;45157;-53
2022/09/23 05:48:01;;;;;;;;;27.67;21.00;;;;;14.27;57.21;101309.69;4975509;28;45335;-55
2022/09/23 05:50:26;;;;;;;;;24.33;18.00;;;;;14.30;57.07;101307.56;4975198;28;45263;-55
2022/09/23 05:52:52;;;;;;;;;21.67;19.33;;;;;14.29;57.05;101310.41;4975322;28;45434;-52
2022/09/23 05:55:17;;;;;;;;;23.00;20.00;;;;;14.32;56.17;101310.06;4977214;28;45350;-54
2022/09/23 05:57:42;;;;;;;;;22.33;18.67;;;;;14.32;57.08;101312.75;4975575;28;45487;-54
2022/09/23 06:00:08;;;;;;;;;21.33;20.00;;;;;14.32;56.83;101313.56;4975004;28;46090;-46
2022/09/23 06:02:34;;;;;;;;;24.67;18.67;;;;;14.33;56.83;101309.09;4975158;28;45413;-49
2022/09/23 06:04:59;;;;;;;;;20.00;18.33;;;;;14.31;56.12;101309.22;4975178;28;45242;-47
2022/09/23 06:07:24;;;;;;;;;24.00;21.67;;;;;14.35;57.58;101309.75;4975206;28;45417;-47
2022/09/23 06:09:52;;;;;;;;;25.33;17.67;;;;;14.35;57.22;101315.09;4975033;28;45310;-45
2022/09/23 06:12:18;;;;;;;;;20.67;19.33;;;;;14.36;57.64;101311.44;4974819;28;45398;-48
2022/09/23 06:14:43;;;;;;;;;24.67;18.67;;;;;14.40;57.23;101316.31;4974947;28;45426;-52
2022/09/23 06:17:09;;;;;;;;;20.67;16.33;;;;;14.42;56.56;101308.97;4975007;28;45306;-47
2022/09/23 06:19:34;;;;;;;;;20.67;20.33;;;;;14.46;56.72;101317.53;4974806;28;46156;-44
2022/09/23 06:21:59;;;;;;;;;19.33;19.00;;;;;14.48;56.33;101303.00;4974855;28;45379;-46
2022/09/23 06:24:25;;;;;;;;;21.67;17.00;;;;;14.50;57.13;101302.03;4974864;28;45224;-47
2022/09/23 06:26:50;;;;;;;;;23.00;23.00;;;;;14.50;56.72;101296.69;4975137;28;45302;-52
2022/09/23 06:29:17;;;;;;;;;28.33;20.67;;;;;14.51;56.83;101303.69;4974636;28;47050;-47
2022/09/23 06:31:42;;;;;;;;;23.00;18.33;;;;;14.56;56.82;101315.59;4976257;28;45228;-51
2022/09/23 06:34:12;;;;;;;;;21.67;19.00;;;;;14.59;56.71;101317.97;4974633;28;45384;-45
2022/09/23 06:36:38;;;;;;;;;17.67;16.00;;;;;14.65;56.65;101319.16;4974651;28;45299;-50
2022/09/23 06:39:04;;;;;;;;;20.33;19.00;;;;;14.68;56.73;101310.81;4974519;28;45395;-49
2022/09/23 06:41:29;;;;;;;;;21.33;20.00;;;;;14.73;56.86;101317.38;4974399;28;45449;-46
2022/09/23 06:43:54;;;;;;;;;26.00;19.00;;;;;14.75;56.73;101319.91;4974959;28;45292;-45
2022/09/23 06:46:20;;;;;;;;;20.00;20.00;;;;;14.79;56.13;101315.91;4975309;28;45291;-47
2022/09/23 06:48:45;;;;;;;;;21.00;20.00;;;;;14.70;55.88;101295.41;4974395;28;45243;-45
2022/09/23 06:51:17;;;;;;;;;24.67;18.67;;;;;14.89;55.57;101311.25;4974456;28;45261;-45
2022/09/23 06:53:47;;;;;;;;;26.00;18.33;;;;;14.95;55.61;101304.41;4974343;28;45367;-46
2022/09/23 06:56:14;;;;;;;;;25.33;18.67;;;;;15.03;55.21;101301.75;4974645;28;45186;-50
2022/09/23 06:58:39;;;;;;;;;27.33;23.33;;;;;15.16;54.81;101312.00;4974300;28;46202;-53
2022/09/23 07:01:08;;;;;;;;;25.00;20.67;;;;;15.21;54.60;101312.34;4974089;28;45222;-54
2022/09/23 07:03:34;;;;;;;;;21.33;20.00;;;;;15.25;54.43;101320.91;4974421;28;45724;-53
2022/09/23 07:06:00;;;;;;;;;22.33;18.00;;;;;15.29;54.55;101316.91;4974383;28;45368;-54
2022/09/23 07:08:27;;;;;;;;;29.67;24.33;;;;;15.36;54.33;101324.13;4973836;28;46936;-53
2022/09/23 07:10:54;;;;;;;;;22.67;20.67;;;;;15.40;54.09;101319.28;4974039;28;45397;-55
2022/09/23 07:13:20;;;;;;;;;28.67;21.67;;;;;15.46;54.04;101314.13;4974234;28;45350;-54
2022/09/23 07:15:53;;;;;;;;;22.00;19.33;;;;;15.53;53.83;101305.41;4972354;28;45383;-53
2022/09/23 07:18:22;;;;;;;;;36.33;20.00;;;;;15.57;53.92;101312.94;4973570;28;45321;-57
2022/09/23 07:20:47;;;;;;;;;26.67;21.67;;;;;15.62;53.76;101312.44;4973021;28;45389;-55
2022/09/23 07:23:13;;;;;;;;;28.67;24.67;;;;;15.57;53.38;101302.22;4973730;28;45347;-52
2022/09/23 07:25:38;;;;;;;;;29.33;23.67;;;;;15.68;53.09;101310.00;4973768;28;45339;-53
2022/09/23 07:28:05;;;;;;;;;29.00;27.00;;;;;15.73;53.23;101311.34;4973335;28;46914;-53
2022/09/23 07:30:30;;;;;;;;;26.00;22.00;;;;;15.74;52.87;101295.06;4973336;28;45468;-49
2022/09/23 07:32:56;;;;;;;;;26.67;23.33;;;;;15.75;52.71;101312.81;4973410;28;45469;-54
2022/09/23 07:35:21;;;;;;;;;23.67;21.33;;;;;15.70;52.54;101299.91;4973570;28;45427;-54
2022/09/23 07:37:49;;;;;;;;;25.33;22.00;;;;;15.67;52.45;101315.50;4972112;28;46238;-53
2022/09/23 07:40:14;;;;;;;;;24.33;21.00;;;;;15.56;52.50;101311.28;4972960;28;45368;-53
2022/09/23 07:42:40;;;;;;;;;25.67;19.67;;;;;15.58;52.31;101314.63;4973315;28;45466;-52
2022/09/23 07:45:07;;;;;;;;;25.00;20.33;;;;;15.56;52.28;101322.00;4973551;28;45390;-52
2022/09/23 07:47:33;;;;;;;;;25.00;19.00;;;;;15.61;52.54;101316.97;4974139;28;46592;-50
2022/09/23 07:49:58;;;;;;;;;23.67;20.33;;;;;15.70;52.16;101318.69;4976129;28;45379;-47
2022/09/23 07:52:24;;;;;;;;;23.00;18.33;;;;;15.77;52.21;101315.38;4976513;28;46025;-55
2022/09/23 07:54:50;;;;;;;;;18.00;15.33;;;;;15.85;51.90;101316.22;4976387;28;45456;-51
2022/09/23 07:57:16;;;;;;;;;18.00;16.00;;;;;15.91;51.50;101320.06;4976454;28;47012;-54
2022/09/23 07:59:42;;;;;;;;;17.00;16.00;;;;;16.06;51.52;101322.91;4976041;28;45252;-54
2022/09/23 08:02:08;;;;;;;;;16.00;16.00;;;;;16.23;51.01;101326.44;4976164;28;45311;-46
2022/09/23 08:04:34;;;;;;;;;19.00;17.67;;;;;16.40;50.56;101330.78;4976567;28;45209;-46
2022/09/23 08:07:02;;;;;;;;;21.00;20.67;;;;;16.64;49.92;101335.22;4976078;28;46071;-50
2022/09/23 08:09:31;;;;;;;;;31.67;21.67;;;;;16.90;49.27;101337.72;4976134;28;45452;-52
2022/09/23 08:11:57;;;;;;;;;26.00;21.00;;;;;16.96;48.55;101319.03;4976173;28;45232;-48
2022/09/23 08:14:23;;;;;;;;;27.67;18.67;;;;;17.29;48.39;101344.94;4975143;28;45410;-43
2022/09/23 08:16:49;;;;;;;;;23.33;19.33;;;;;17.47;47.87;101348.19;4976132;28;45852;-54
2022/09/23 08:19:15;;;;;;;;;24.67;22.00;;;;;17.65;48.03;101353.28;4976421;28;45412;-47
2022/09/23 08:21:41;;;;;;;;;22.00;20.00;;;;;17.83;47.76;101339.59;4976291;28;45415;-54
2022/09/23 08:24:12;;;;;;;;;27.67;21.00;;;;;18.15;47.11;101342.00;4976122;28;45483;-53
2022/09/23 08:26:37;;;;;;;;;29.67;26.00;;;;;18.10;47.36;101352.47;4975757;28;45979;-49
2022/09/23 08:29:04;;;;;;;;;31.33;23.33;;;;;18.02;47.31;101346.31;4975805;28;45173;-52
2022/09/23 08:31:30;;;;;;;;;28.67;25.00;;;;;18.00;47.51;101343.00;4976000;28;45187;-50
2022/09/23 08:33:57;;;;;;;;;25.67;17.67;;;;;18.07;47.55;101352.00;4975819;28;45785;-49
2022/09/23 08:36:24;;;;;;;;;29.33;25.00;;;;;18.34;46.62;101350.59;4990727;28;46250;-51
2022/09/23 08:38:49;;;;;;;;;21.33;21.33;;;;;18.83;46.06;101342.00;4975618;28;45390;-50
2022/09/23 08:41:28;;;;;;;;;26.00;23.67;;;;;19.12;45.75;101341.16;4976034;28;45273;-51
2022/09/23 08:44:01;;;;;;;;;22.00;22.00;;;;;19.27;45.27;101341.16;4977034;28;45234;-49
2022/09/23 08:46:33;;;;;;;;;23.00;18.00;;;;;19.56;44.56;101329.44;4991830;28;47939;-49
2022/09/23 08:49:00;;;;;;;;;25.00;21.33;;;;;20.06;43.67;101330.38;4976108;28;45919;-49
2022/09/23 08:51:47;;;;;;;;;28.00;24.00;;;;;20.56;42.87;101325.75;4976534;28;45235;-50
2022/09/23 08:54:15;;;;;;;;;31.67;21.33;;;;;20.60;42.52;101332.44;4976221;28;45301;-44
2022/09/23 08:56:44;;;;;;;;;28.00;27.67;;;;;20.40;42.47;101326.91;4975395;28;46412;-46
2022/09/23 08:59:21;;;;;;;;;26.00;22.67;;;;;20.06;42.81;101331.19;4974022;28;45179;-46
2022/09/23 09:01:51;;;;;;;;;27.67;25.00;;;;;19.75;43.41;101333.38;4974876;28;45324;-51
2022/09/23 09:04:26;;;;;;;;;28.67;24.00;;;;;19.44;44.21;101332.63;4975361;28;45453;-53
2022/09/23 09:07:11;;;;;;;;;29.67;27.33;;;;;19.20;44.44;101332.97;4975195;28;45498;-47
2022/09/23 09:09:58;;;;;;;;;30.33;23.67;;;;;19.10;44.87;101338.66;4974978;28;45355;-46
2022/09/23 09:12:33;;;;;;;;;29.33;21.00;;;;;19.02;44.82;101336.06;5071082;28;45524;-49
2022/09/23 09:15:22;;;;;;;;;29.33;24.33;;;;;18.97;45.33;101338.50;5077901;27;45488;-45
2022/09/23 09:18:16;;;;;;;;;34.00;26.67;;;;;18.81;45.31;101327.91;5014920;28;46311;-45
2022/09/23 09:21:07;;;;;;;;;29.00;25.67;;;;;18.76;45.41;101335.72;5015122;28;45296;-48
2022/09/23 09:23:32;;;;;;;;;30.67;23.67;;;;;18.69;45.62;101324.78;4998446;28;45518;-47
2022/09/23 09:26:00;;;;;;;;;30.67;25.33;;;;;18.65;45.52;101327.03;5015682;28;45395;-49
2022/09/23 09:28:34;;;;;;;;;29.33;23.33;;;;;18.64;45.53;101325.34;5014775;28;45945;-45
2022/09/23 09:31:13;;;;;;;;;23.33;23.00;;;;;18.66;45.54;101320.59;5014911;28;45517;-52
2022/09/23 09:33:56;;;;;;;;;27.67;22.67;;;;;18.71;45.72;101330.88;5014680;28;45460;-52
2022/09/23 09:36:25;;;;;;;;;32.67;23.67;;;;;18.79;45.16;101325.38;5014975;28;45429;-52
2022/09/23 09:38:52;;;;;;;;;26.33;24.67;;;;;18.87;45.40;101319.06;5015094;28;46510;-48
2022/09/23 09:41:20;;;;;;;;;24.00;21.00;;;;;18.98;44.81;101310.50;5014595;28;45384;-52
2022/09/23 09:43:55;;;;;;;;;27.33;23.33;;;;;19.40;43.76;101314.31;5015013;28;45430;-50
2022/09/23 09:46:45;;;;;;;;;28.33;27.33;;;;;19.86;43.11;101316.69;5015134;28;45922;-52
2022/09/23 09:49:22;;;;;;;;;25.00;22.67;;;;;20.72;42.16;101311.94;5014592;28;47073;-53
2022/09/23 09:51:48;;;;;;;;;28.33;25.00;;;;;21.58;40.42;101306.06;5014750;28;45554;-54
2022/09/23 09:54:24;;;;;;;;;26.67;23.33;;;;;22.32;40.16;101308.59;5030998;28;45381;-50
2022/09/23 09:56:51;;;;;;;;;28.33;25.00;;;;;22.66;39.71;101312.06;5077372;27;45462;-51
2022/09/23 09:59:26;;;;;;;;;30.33;25.67;;;;;22.72;38.18;101304.97;5077250;27;47133;-51
2022/09/23 10:02:30;;;;;;;;;29.67;25.00;;;;;22.68;38.50;101307.28;5076910;27;45598;-50
2022/09/23 10:04:59;;;;;;;;;33.00;25.33;;;;;23.15;38.31;101306.06;5076558;28;45715;-51
2022/09/23 10:07:28;;;;;;;;;29.33;25.33;;;;;23.76;36.83;101301.97;5077143;27;45390;-54
2022/09/23 10:09:53;;;;;;;;;29.00;26.67;;;;;24.26;35.79;101301.13;5076201;27;46469;-49
2022/09/23 10:12:21;;;;;;;;;25.33;21.33;;;;;24.45;34.71;101278.41;5076997;27;45354;-52
2022/09/23 10:14:50;;;;;;;;;22.75;19.75;;;;;24.42;34.97;101283.44;5076885;28;45313;-50
2022/09/23 10:17:35;;;;;;;;;29.50;24.00;;;;;24.66;34.49;101287.19;5076984;27;45671;-51
2022/09/23 10:20:14;;;;;;;;;24.50;22.25;;;;;25.88;33.56;101287.84;5076877;27;46270;-55
2022/09/23 10:22:42;;;;;;;;;30.00;24.50;;;;;27.08;33.40;101289.13;5077111;27;45543;-49
2022/09/23 10:25:15;;;;;;;;;27.75;22.75;;;;;28.05;30.06;101279.97;5017249;27;45515;-52
2022/09/23 10:27:42;;;;;;;;;22.75;22.75;;;;;28.28;29.78;101281.69;4974306;28;45422;-49
2022/09/23 10:30:22;;;;;;;;;25.50;19.00;;;;;27.68;31.32;101271.41;4974140;28;46405;-45
2022/09/23 10:32:48;;;;;;;;;26.25;23.75;;;;;26.77;30.48;101276.78;4973888;28;45585;-46
2022/09/23 10:35:23;;;;;;;;;24.25;19.75;;;;;25.99;31.23;101270.63;4974034;28;45421;-45
2022/09/23 10:37:57;;;;;;;;;22.75;22.00;;;;;25.57;32.61;101269.84;4974634;28;45352;-53
2022/09/23 10:46:45;;;;;;;;;24.50;20.00;;;;;24.96;32.51;101277.16;4973749;28;45322;-52
2022/09/23 10:49:41;;;;;;;;;26.00;21.75;;;;;25.06;32.45;101269.28;4973829;28;45865;-47
2022/09/23 10:52:14;;;;;;;;;24.00;20.00;;;;;25.80;31.82;101261.75;4973497;28;46213;-52
2022/09/23 10:55:22;;;;;;;;;22.50;21.50;;;;;26.50;31.05;101263.66;4973810;28;45433;-53
2022/09/23 10:58:49;;;;;;;;;27.00;24.25;;;;;26.85;30.68;101257.28;4973679;28;45425;-54
2022/09/23 11:01:20;;;;;;;;;26.25;22.00;;;;;27.74;29.50;101246.69;5013962;28;45502;-45
2022/09/23 11:04:16;;;;;;;;;21.75;21.00;;;;;28.57;28.43;101241.34;5013666;28;46232;-46
2022/09/23 11:07:03;;;;;;;;;23.00;20.00;;;;;28.74;28.01;101244.00;5013735;28;45503;-52
2022/09/23 11:09:49;;;;;;;;;18.80;14.80;;;;;28.77;27.55;101232.53;5013900;28;45569;-48
2022/09/23 11:12:21;;;;;;;;;24.50;20.00;;;;;28.37;27.39;101230.94;5014198;28;45327;-55
2022/09/23 11:15:05;;;;;;;;;24.75;19.75;;;;;27.74;28.52;101233.00;5013368;28;47340;-53
2022/09/23 11:17:52;;;;;;;;;18.00;17.40;;;;;27.26;28.46;101236.25;5013460;28;45366;-50
2022/09/23 11:20:28;;;;;;;;;18.00;16.80;;;;;26.58;29.02;101243.34;5013155;28;45289;-53
2022/09/23 11:23:06;;;;;;;;;22.00;15.25;;;;;26.10;29.88;101242.56;5015902;28;45396;-47
2022/09/23 11:25:50;;;;;;;;;19.25;18.25;;;;;25.58;30.81;101228.75;5016851;28;46569;-52
2022/09/23 11:28:34;;;;;;;;;21.75;18.00;;;;;25.04;31.15;101233.31;5017058;28;45524;-54
2022/09/23 11:31:36;;;;;;;;;21.50;20.25;;;;;24.57;31.30;101237.69;5007623;28;45383;-54
2022/09/23 11:34:26;;;;;;;;;17.00;16.00;;;;;24.30;31.48;101231.66;4976574;28;45430;-52
2022/09/23 11:37:09;;;;;;;;;17.75;16.75;;;;;24.14;31.95;101227.63;4976178;28;45803;-55